sensor_id;sensor_type;location;lat;lon;timestamp;P1;P2;P0
72023;PMS5003;59889;50.700;5.440;2023-06-22T00:00:28;5;4;
72023;PMS5003;59889;50.700;5.440;2023-06-22T00:02:54;5;5;
72023;PMS5003;59889;50.700;5.440;2023-06-22T00:05:20;5;4;
72023;PMS5003;59889;50.700;5.440;2023-06-22T00:07:46;4;4;
72023;PMS5003;59889;50.700;5.440;2023-06-22T00:10:11;6;6;
72023;PMS5003;59889;50.700;5.440;2023-06-22T00:12:37;4;4;
72023;PMS5003;59889;50.700;5.440;2023-06-22T00:15:03;7;6;
72023;PMS5003;59889;50.700;5.440;2023-06-22T00:17:29;5;5;
72023;PMS5003;59889;50.700;5.440;2023-06-22T00:19:55;5;5;
72023;PMS5003;59889;50.700;5.440;2023-06-22T00:22:21;5;5;
72023;PMS5003;59889;50.700;5.440;2023-06-22T00:24:46;5;5;
72023;PMS5003;59889;50.700;5.440;2023-06-22T00:27:12;5;5;
72023;PMS5003;59889;50.700;5.440;2023-06-22T00:29:38;5;5;
72023;PMS5003;59889;50.700;5.440;2023-06-22T00:32:04;3;3;
72023;PMS5003;59889;50.700;5.440;2023-06-22T00:34:30;5;5;
72023;PMS5003;59889;50.700;5.440;2023-06-22T00:36:55;4;4;
72023;PMS5003;59889;50.700;5.440;2023-06-22T00:39:21;6;5;
72023;PMS5003;59889;50.700;5.440;2023-06-22T00:41:47;5;5;
72023;PMS5003;59889;50.700;5.440;2023-06-22T00:44:13;5;5;
72023;PMS5003;59889;50.700;5.440;2023-06-22T00:46:39;6;6;
72023;PMS5003;59889;50.700;5.440;2023-06-22T00:49:04;6;5;
72023;PMS5003;59889;50.700;5.440;2023-06-22T00:51:31;6;5;
72023;PMS5003;59889;50.700;5.440;2023-06-22T00:53:56;5;5;
72023;PMS5003;59889;50.700;5.440;2023-06-22T00:56:22;4;4;
72023;PMS5003;59889;50.700;5.440;2023-06-22T00:58:48;6;6;
72023;PMS5003;59889;50.700;5.440;2023-06-22T01:01:14;5;5;
72023;PMS5003;59889;50.700;5.440;2023-06-22T01:03:39;4;4;
72023;PMS5003;59889;50.700;5.440;2023-06-22T01:06:06;5;4;
72023;PMS5003;59889;50.700;5.440;2023-06-22T01:08:33;4;4;
72023;PMS5003;59889;50.700;5.440;2023-06-22T01:10:58;4;4;
72023;PMS5003;59889;50.700;5.440;2023-06-22T01:13:25;4;4;
72023;PMS5003;59889;50.700;5.440;2023-06-22T01:15:49;5;4;
72023;PMS5003;59889;50.700;5.440;2023-06-22T01:18:14;6;6;
72023;PMS5003;59889;50.700;5.440;2023-06-22T01:20:40;6;5;
72023;PMS5003;59889;50.700;5.440;2023-06-22T01:23:09;5;5;
72023;PMS5003;59889;50.700;5.440;2023-06-22T01:25:33;5;5;
72023;PMS5003;59889;50.700;5.440;2023-06-22T01:27:59;5;5;
72023;PMS5003;59889;50.700;5.440;2023-06-22T01:30:23;4;4;
72023;PMS5003;59889;50.700;5.440;2023-06-22T01:32:49;3;3;
72023;PMS5003;59889;50.700;5.440;2023-06-22T01:35:15;4;4;
72023;PMS5003;59889;50.700;5.440;2023-06-22T01:37:41;5;5;
72023;PMS5003;59889;50.700;5.440;2023-06-22T01:40:07;3;3;
72023;PMS5003;59889;50.700;5.440;2023-06-22T01:42:32;5;5;
72023;PMS5003;59889;50.700;5.440;2023-06-22T01:44:58;6;5;
72023;PMS5003;59889;50.700;5.440;2023-06-22T01:47:24;4;4;
72023;PMS5003;59889;50.700;5.440;2023-06-22T01:49:50;4;4;
72023;PMS5003;59889;50.700;5.440;2023-06-22T01:52:16;5;4;
72023;PMS5003;59889;50.700;5.440;2023-06-22T01:54:41;6;6;
72023;PMS5003;59889;50.700;5.440;2023-06-22T01:57:07;7;5;
72023;PMS5003;59889;50.700;5.440;2023-06-22T01:59:34;4;3;
72023;PMS5003;59889;50.700;5.440;2023-06-22T02:02:00;4;4;
72023;PMS5003;59889;50.700;5.440;2023-06-22T02:04:26;6;5;
72023;PMS5003;59889;50.700;5.440;2023-06-22T02:06:51;5;5;
72023;PMS5003;59889;50.700;5.440;2023-06-22T02:09:17;5;5;
72023;PMS5003;59889;50.700;5.440;2023-06-22T02:11:43;5;5;
72023;PMS5003;59889;50.700;5.440;2023-06-22T02:14:08;5;4;
72023;PMS5003;59889;50.700;5.440;2023-06-22T02:16:34;4;3;
72023;PMS5003;59889;50.700;5.440;2023-06-22T02:19:00;5;5;
72023;PMS5003;59889;50.700;5.440;2023-06-22T02:21:25;5;5;
72023;PMS5003;59889;50.700;5.440;2023-06-22T02:23:51;4;3;
72023;PMS5003;59889;50.700;5.440;2023-06-22T02:26:17;7;6;
72023;PMS5003;59889;50.700;5.440;2023-06-22T02:28:43;5;5;
72023;PMS5003;59889;50.700;5.440;2023-06-22T02:31:09;6;5;
72023;PMS5003;59889;50.700;5.440;2023-06-22T02:33:35;4;4;
72023;PMS5003;59889;50.700;5.440;2023-06-22T02:36:00;5;5;
72023;PMS5003;59889;50.700;5.440;2023-06-22T02:38:26;6;5;
72023;PMS5003;59889;50.700;5.440;2023-06-22T02:40:52;5;5;
72023;PMS5003;59889;50.700;5.440;2023-06-22T02:43:18;3;3;
72023;PMS5003;59889;50.700;5.440;2023-06-22T02:45:44;5;5;
72023;PMS5003;59889;50.700;5.440;2023-06-22T02:48:10;5;5;
72023;PMS5003;59889;50.700;5.440;2023-06-22T02:50:35;7;6;
72023;PMS5003;59889;50.700;5.440;2023-06-22T02:53:01;5;5;
72023;PMS5003;59889;50.700;5.440;2023-06-22T02:55:27;5;5;
72023;PMS5003;59889;50.700;5.440;2023-06-22T02:57:53;4;4;
72023;PMS5003;59889;50.700;5.440;2023-06-22T03:00:19;5;5;
72023;PMS5003;59889;50.700;5.440;2023-06-22T03:02:44;4;4;
72023;PMS5003;59889;50.700;5.440;2023-06-22T03:05:10;3;3;
72023;PMS5003;59889;50.700;5.440;2023-06-22T03:07:36;6;6;
72023;PMS5003;59889;50.700;5.440;2023-06-22T03:10:02;4;4;
72023;PMS5003;59889;50.700;5.440;2023-06-22T03:12:28;3;3;
72023;PMS5003;59889;50.700;5.440;2023-06-22T03:14:53;5;5;
72023;PMS5003;59889;50.700;5.440;2023-06-22T03:17:19;5;5;
72023;PMS5003;59889;50.700;5.440;2023-06-22T03:19:45;4;4;
72023;PMS5003;59889;50.700;5.440;2023-06-22T03:22:11;3;3;
72023;PMS5003;59889;50.700;5.440;2023-06-22T03:24:37;5;5;
72023;PMS5003;59889;50.700;5.440;2023-06-22T03:27:03;4;4;
72023;PMS5003;59889;50.700;5.440;2023-06-22T03:29:28;4;4;
72023;PMS5003;59889;50.700;5.440;2023-06-22T03:31:54;3;3;
72023;PMS5003;59889;50.700;5.440;2023-06-22T03:34:20;7;6;
72023;PMS5003;59889;50.700;5.440;2023-06-22T03:36:45;4;4;
72023;PMS5003;59889;50.700;5.440;2023-06-22T03:39:11;3;3;
72023;PMS5003;59889;50.700;5.440;2023-06-22T03:41:37;5;4;
72023;PMS5003;59889;50.700;5.440;2023-06-22T03:44:03;3;3;
72023;PMS5003;59889;50.700;5.440;2023-06-22T03:46:29;4;4;
72023;PMS5003;59889;50.700;5.440;2023-06-22T03:48:54;3;3;
72023;PMS5003;59889;50.700;5.440;2023-06-22T03:51:20;4;4;
72023;PMS5003;59889;50.700;5.440;2023-06-22T03:53:46;4;4;
72023;PMS5003;59889;50.700;5.440;2023-06-22T03:56:12;4;4;
72023;PMS5003;59889;50.700;5.440;2023-06-22T03:58:38;5;5;
72023;PMS5003;59889;50.700;5.440;2023-06-22T04:01:03;5;5;
72023;PMS5003;59889;50.700;5.440;2023-06-22T04:03:29;5;5;
72023;PMS5003;59889;50.700;5.440;2023-06-22T04:05:55;5;4;
72023;PMS5003;59889;50.700;5.440;2023-06-22T04:08:21;7;5;
72023;PMS5003;59889;50.700;5.440;2023-06-22T04:10:47;5;5;
72023;PMS5003;59889;50.700;5.440;2023-06-22T04:13:13;6;6;
72023;PMS5003;59889;50.700;5.440;2023-06-22T04:15:38;6;6;
72023;PMS5003;59889;50.700;5.440;2023-06-22T04:18:04;4;4;
72023;PMS5003;59889;50.700;5.440;2023-06-22T04:20:30;7;7;
72023;PMS5003;59889;50.700;5.440;2023-06-22T04:22:56;7;6;
72023;PMS5003;59889;50.700;5.440;2023-06-22T04:25:22;6;6;
72023;PMS5003;59889;50.700;5.440;2023-06-22T04:27:47;7;7;
72023;PMS5003;59889;50.700;5.440;2023-06-22T04:30:13;7;7;
72023;PMS5003;59889;50.700;5.440;2023-06-22T04:32:39;6;6;
72023;PMS5003;59889;50.700;5.440;2023-06-22T04:35:04;7;7;
72023;PMS5003;59889;50.700;5.440;2023-06-22T04:37:30;8;8;
72023;PMS5003;59889;50.700;5.440;2023-06-22T04:39:56;7;7;
72023;PMS5003;59889;50.700;5.440;2023-06-22T04:42:22;8;7;
72023;PMS5003;59889;50.700;5.440;2023-06-22T04:44:47;9;7;
72023;PMS5003;59889;50.700;5.440;2023-06-22T04:47:13;8;7;
72023;PMS5003;59889;50.700;5.440;2023-06-22T04:49:39;8;7;
72023;PMS5003;59889;50.700;5.440;2023-06-22T04:52:06;8;8;
72023;PMS5003;59889;50.700;5.440;2023-06-22T04:54:31;7;7;
72023;PMS5003;59889;50.700;5.440;2023-06-22T04:56:57;8;8;
72023;PMS5003;59889;50.700;5.440;2023-06-22T04:59:22;8;8;
72023;PMS5003;59889;50.700;5.440;2023-06-22T05:01:48;9;8;
72023;PMS5003;59889;50.700;5.440;2023-06-22T05:04:14;6;6;
72023;PMS5003;59889;50.700;5.440;2023-06-22T05:06:40;7;7;
72023;PMS5003;59889;50.700;5.440;2023-06-22T05:09:06;10;10;
72023;PMS5003;59889;50.700;5.440;2023-06-22T05:11:31;12;10;
72023;PMS5003;59889;50.700;5.440;2023-06-22T05:13:57;12;11;
72023;PMS5003;59889;50.700;5.440;2023-06-22T05:16:23;12;12;
72023;PMS5003;59889;50.700;5.440;2023-06-22T05:18:50;11;11;
72023;PMS5003;59889;50.700;5.440;2023-06-22T05:21:15;13;12;
72023;PMS5003;59889;50.700;5.440;2023-06-22T05:23:41;12;12;
72023;PMS5003;59889;50.700;5.440;2023-06-22T05:26:07;13;12;
72023;PMS5003;59889;50.700;5.440;2023-06-22T05:28:32;14;14;
72023;PMS5003;59889;50.700;5.440;2023-06-22T05:30:58;15;13;
72023;PMS5003;59889;50.700;5.440;2023-06-22T05:33:24;14;13;
72023;PMS5003;59889;50.700;5.440;2023-06-22T05:35:49;12;12;
72023;PMS5003;59889;50.700;5.440;2023-06-22T05:38:15;11;9;
72023;PMS5003;59889;50.700;5.440;2023-06-22T05:40:41;12;12;
72023;PMS5003;59889;50.700;5.440;2023-06-22T05:43:07;14;14;
72023;PMS5003;59889;50.700;5.440;2023-06-22T05:45:33;13;13;
72023;PMS5003;59889;50.700;5.440;2023-06-22T05:47:58;12;11;
72023;PMS5003;59889;50.700;5.440;2023-06-22T05:50:24;12;12;
72023;PMS5003;59889;50.700;5.440;2023-06-22T05:52:50;19;16;
72023;PMS5003;59889;50.700;5.440;2023-06-22T05:55:16;17;17;
72023;PMS5003;59889;50.700;5.440;2023-06-22T05:57:42;16;14;
72023;PMS5003;59889;50.700;5.440;2023-06-22T06:00:08;15;15;
72023;PMS5003;59889;50.700;5.440;2023-06-22T06:02:33;16;16;
72023;PMS5003;59889;50.700;5.440;2023-06-22T06:04:59;14;14;
72023;PMS5003;59889;50.700;5.440;2023-06-22T06:07:25;18;18;
72023;PMS5003;59889;50.700;5.440;2023-06-22T06:09:50;14;14;
72023;PMS5003;59889;50.700;5.440;2023-06-22T06:12:16;14;14;
72023;PMS5003;59889;50.700;5.440;2023-06-22T06:14:42;12;12;
72023;PMS5003;59889;50.700;5.440;2023-06-22T06:17:08;16;15;
72023;PMS5003;59889;50.700;5.440;2023-06-22T06:19:34;16;15;
72023;PMS5003;59889;50.700;5.440;2023-06-22T06:21:59;17;16;
72023;PMS5003;59889;50.700;5.440;2023-06-22T06:24:24;21;20;
72023;PMS5003;59889;50.700;5.440;2023-06-22T06:26:50;17;15;
72023;PMS5003;59889;50.700;5.440;2023-06-22T06:29:15;17;16;
72023;PMS5003;59889;50.700;5.440;2023-06-22T06:31:41;16;15;
72023;PMS5003;59889;50.700;5.440;2023-06-22T06:34:07;17;17;
72023;PMS5003;59889;50.700;5.440;2023-06-22T06:36:32;16;16;
72023;PMS5003;59889;50.700;5.440;2023-06-22T06:38:58;17;16;
72023;PMS5003;59889;50.700;5.440;2023-06-22T06:41:24;17;15;
72023;PMS5003;59889;50.700;5.440;2023-06-22T07:13:14;16;12;
72023;PMS5003;59889;50.700;5.440;2023-06-22T07:15:40;21;21;
72023;PMS5003;59889;50.700;5.440;2023-06-22T07:18:05;19;18;
72023;PMS5003;59889;50.700;5.440;2023-06-22T07:20:30;21;20;
72023;PMS5003;59889;50.700;5.440;2023-06-22T07:22:55;21;20;
72023;PMS5003;59889;50.700;5.440;2023-06-22T07:25:21;22;21;
72023;PMS5003;59889;50.700;5.440;2023-06-22T07:27:56;19;19;
72023;PMS5003;59889;50.700;5.440;2023-06-22T07:30:12;26;25;
72023;PMS5003;59889;50.700;5.440;2023-06-22T07:32:38;19;19;
72023;PMS5003;59889;50.700;5.440;2023-06-22T07:35:03;20;18;
72023;PMS5003;59889;50.700;5.440;2023-06-22T07:37:28;21;21;
72023;PMS5003;59889;50.700;5.440;2023-06-22T07:39:53;17;17;
72023;PMS5003;59889;50.700;5.440;2023-06-22T07:42:19;21;21;
72023;PMS5003;59889;50.700;5.440;2023-06-22T07:44:44;19;17;
72023;PMS5003;59889;50.700;5.440;2023-06-22T07:47:10;21;20;
72023;PMS5003;59889;50.700;5.440;2023-06-22T07:49:35;21;20;
72023;PMS5003;59889;50.700;5.440;2023-06-22T07:52:01;21;20;
72023;PMS5003;59889;50.700;5.440;2023-06-22T07:54:26;21;20;
72023;PMS5003;59889;50.700;5.440;2023-06-22T07:56:51;19;19;
72023;PMS5003;59889;50.700;5.440;2023-06-22T07:59:17;18;17;
72023;PMS5003;59889;50.700;5.440;2023-06-22T08:01:42;18;17;
72023;PMS5003;59889;50.700;5.440;2023-06-22T08:04:07;21;21;
72023;PMS5003;59889;50.700;5.440;2023-06-22T08:06:32;23;23;
72023;PMS5003;59889;50.700;5.440;2023-06-22T08:08:58;23;23;
72023;PMS5003;59889;50.700;5.440;2023-06-22T08:11:23;18;17;
72023;PMS5003;59889;50.700;5.440;2023-06-22T08:13:49;21;20;
72023;PMS5003;59889;50.700;5.440;2023-06-22T08:16:14;20;20;
72023;PMS5003;59889;50.700;5.440;2023-06-22T08:18:40;18;17;
72023;PMS5003;59889;50.700;5.440;2023-06-22T08:21:05;19;18;
72023;PMS5003;59889;50.700;5.440;2023-06-22T08:23:31;20;19;
72023;PMS5003;59889;50.700;5.440;2023-06-22T08:25:56;17;17;
72023;PMS5003;59889;50.700;5.440;2023-06-22T08:28:21;21;20;
72023;PMS5003;59889;50.700;5.440;2023-06-22T08:30:46;19;19;
72023;PMS5003;59889;50.700;5.440;2023-06-22T08:33:11;21;20;
72023;PMS5003;59889;50.700;5.440;2023-06-22T08:35:37;21;21;
72023;PMS5003;59889;50.700;5.440;2023-06-22T08:38:02;23;21;
72023;PMS5003;59889;50.700;5.440;2023-06-22T08:40:27;19;18;
72023;PMS5003;59889;50.700;5.440;2023-06-22T08:42:53;21;20;
72023;PMS5003;59889;50.700;5.440;2023-06-22T08:45:18;19;18;
72023;PMS5003;59889;50.700;5.440;2023-06-22T08:47:43;19;19;
72023;PMS5003;59889;50.700;5.440;2023-06-22T08:50:08;18;18;
72023;PMS5003;59889;50.700;5.440;2023-06-22T08:52:33;19;19;
72023;PMS5003;59889;50.700;5.440;2023-06-22T08:54:58;22;20;
72023;PMS5003;59889;50.700;5.440;2023-06-22T08:57:24;23;20;
72023;PMS5003;59889;50.700;5.440;2023-06-22T08:59:49;22;20;
72023;PMS5003;59889;50.700;5.440;2023-06-22T09:02:15;17;16;
72023;PMS5003;59889;50.700;5.440;2023-06-22T09:04:40;18;17;
72023;PMS5003;59889;50.700;5.440;2023-06-22T09:07:05;18;18;
72023;PMS5003;59889;50.700;5.440;2023-06-22T09:09:30;18;17;
72023;PMS5003;59889;50.700;5.440;2023-06-22T09:11:55;20;20;
72023;PMS5003;59889;50.700;5.440;2023-06-22T09:14:21;20;19;
72023;PMS5003;59889;50.700;5.440;2023-06-22T09:16:46;21;20;
72023;PMS5003;59889;50.700;5.440;2023-06-22T09:19:12;19;18;
72023;PMS5003;59889;50.700;5.440;2023-06-22T09:21:37;19;19;
72023;PMS5003;59889;50.700;5.440;2023-06-22T09:24:02;22;21;
72023;PMS5003;59889;50.700;5.440;2023-06-22T09:26:27;21;19;
72023;PMS5003;59889;50.700;5.440;2023-06-22T09:28:52;18;17;
72023;PMS5003;59889;50.700;5.440;2023-06-22T09:31:17;17;17;
72023;PMS5003;59889;50.700;5.440;2023-06-22T09:33:42;19;18;
72023;PMS5003;59889;50.700;5.440;2023-06-22T09:36:08;21;21;
72023;PMS5003;59889;50.700;5.440;2023-06-22T09:38:34;22;19;
72023;PMS5003;59889;50.700;5.440;2023-06-22T09:40:59;18;18;
72023;PMS5003;59889;50.700;5.440;2023-06-22T09:43:24;18;17;
72023;PMS5003;59889;50.700;5.440;2023-06-22T09:45:49;22;21;
72023;PMS5003;59889;50.700;5.440;2023-06-22T09:48:14;19;19;
72023;PMS5003;59889;50.700;5.440;2023-06-22T09:50:40;18;17;
72023;PMS5003;59889;50.700;5.440;2023-06-22T09:53:05;20;20;
72023;PMS5003;59889;50.700;5.440;2023-06-22T09:55:30;19;18;
72023;PMS5003;59889;50.700;5.440;2023-06-22T09:57:55;21;20;
72023;PMS5003;59889;50.700;5.440;2023-06-22T10:00:21;20;19;
72023;PMS5003;59889;50.700;5.440;2023-06-22T10:02:46;21;21;
72023;PMS5003;59889;50.700;5.440;2023-06-22T10:05:12;22;20;
72023;PMS5003;59889;50.700;5.440;2023-06-22T10:07:37;22;20;
72023;PMS5003;59889;50.700;5.440;2023-06-22T10:10:02;21;19;
72023;PMS5003;59889;50.700;5.440;2023-06-22T10:12:28;21;19;
72023;PMS5003;59889;50.700;5.440;2023-06-22T10:14:53;22;21;
72023;PMS5003;59889;50.700;5.440;2023-06-22T10:17:18;18;17;
72023;PMS5003;59889;50.700;5.440;2023-06-22T10:19:43;21;19;
72023;PMS5003;59889;50.700;5.440;2023-06-22T10:22:08;18;16;
72023;PMS5003;59889;50.700;5.440;2023-06-22T10:24:34;21;18;
72023;PMS5003;59889;50.700;5.440;2023-06-22T10:27:00;21;21;
72023;PMS5003;59889;50.700;5.440;2023-06-22T10:29:25;19;19;
72023;PMS5003;59889;50.700;5.440;2023-06-22T10:31:50;18;17;
72023;PMS5003;59889;50.700;5.440;2023-06-22T10:34:15;20;19;
72023;PMS5003;59889;50.700;5.440;2023-06-22T10:36:40;19;18;
72023;PMS5003;59889;50.700;5.440;2023-06-22T10:39:05;17;15;
72023;PMS5003;59889;50.700;5.440;2023-06-22T10:41:30;18;18;
72023;PMS5003;59889;50.700;5.440;2023-06-22T10:43:55;19;19;
72023;PMS5003;59889;50.700;5.440;2023-06-22T10:46:21;19;18;
72023;PMS5003;59889;50.700;5.440;2023-06-22T10:48:45;18;18;
72023;PMS5003;59889;50.700;5.440;2023-06-22T10:51:11;22;21;
72023;PMS5003;59889;50.700;5.440;2023-06-22T10:53:36;19;17;
72023;PMS5003;59889;50.700;5.440;2023-06-22T10:56:01;21;21;
72023;PMS5003;59889;50.700;5.440;2023-06-22T10:58:27;22;21;
72023;PMS5003;59889;50.700;5.440;2023-06-22T11:00:52;17;17;
72023;PMS5003;59889;50.700;5.440;2023-06-22T11:03:17;19;17;
72023;PMS5003;59889;50.700;5.440;2023-06-22T11:05:42;20;20;
72023;PMS5003;59889;50.700;5.440;2023-06-22T11:08:07;20;19;
72023;PMS5003;59889;50.700;5.440;2023-06-22T11:10:33;22;21;
72023;PMS5003;59889;50.700;5.440;2023-06-22T11:12:58;18;18;
72023;PMS5003;59889;50.700;5.440;2023-06-22T11:15:23;17;17;
72023;PMS5003;59889;50.700;5.440;2023-06-22T11:17:48;18;18;
72023;PMS5003;59889;50.700;5.440;2023-06-22T11:20:14;19;19;
72023;PMS5003;59889;50.700;5.440;2023-06-22T11:22:39;19;18;
72023;PMS5003;59889;50.700;5.440;2023-06-22T11:25:05;23;22;
72023;PMS5003;59889;50.700;5.440;2023-06-22T11:27:30;22;20;
72023;PMS5003;59889;50.700;5.440;2023-06-22T11:29:55;18;17;
72023;PMS5003;59889;50.700;5.440;2023-06-22T11:32:20;21;20;
72023;PMS5003;59889;50.700;5.440;2023-06-22T11:34:46;24;23;
72023;PMS5003;59889;50.700;5.440;2023-06-22T11:37:11;22;21;
72023;PMS5003;59889;50.700;5.440;2023-06-22T11:39:37;19;18;
72023;PMS5003;59889;50.700;5.440;2023-06-22T11:42:02;18;17;
72023;PMS5003;59889;50.700;5.440;2023-06-22T11:44:27;17;17;
72023;PMS5003;59889;50.700;5.440;2023-06-22T11:46:52;22;20;
72023;PMS5003;59889;50.700;5.440;2023-06-22T11:49:18;21;19;
72023;PMS5003;59889;50.700;5.440;2023-06-22T11:51:43;28;27;
72023;PMS5003;59889;50.700;5.440;2023-06-22T11:54:09;29;29;
72023;PMS5003;59889;50.700;5.440;2023-06-22T11:56:34;31;28;
72023;PMS5003;59889;50.700;5.440;2023-06-22T11:59:00;32;32;
72023;PMS5003;59889;50.700;5.440;2023-06-22T12:01:25;37;36;
72023;PMS5003;59889;50.700;5.440;2023-06-22T12:03:51;38;35;
72023;PMS5003;59889;50.700;5.440;2023-06-22T12:06:17;40;39;
72023;PMS5003;59889;50.700;5.440;2023-06-22T12:08:42;38;38;
72023;PMS5003;59889;50.700;5.440;2023-06-22T12:11:07;41;37;
72023;PMS5003;59889;50.700;5.440;2023-06-22T12:13:33;31;30;
72023;PMS5003;59889;50.700;5.440;2023-06-22T12:15:58;38;36;
72023;PMS5003;59889;50.700;5.440;2023-06-22T12:18:23;40;39;
72023;PMS5003;59889;50.700;5.440;2023-06-22T12:20:49;37;37;
72023;PMS5003;59889;50.700;5.440;2023-06-22T12:23:14;35;34;
72023;PMS5003;59889;50.700;5.440;2023-06-22T12:25:40;31;31;
72023;PMS5003;59889;50.700;5.440;2023-06-22T12:28:05;37;36;
72023;PMS5003;59889;50.700;5.440;2023-06-22T12:30:30;40;38;
72023;PMS5003;59889;50.700;5.440;2023-06-22T12:32:55;37;35;
72023;PMS5003;59889;50.700;5.440;2023-06-22T12:35:20;38;36;
72023;PMS5003;59889;50.700;5.440;2023-06-22T12:37:46;38;36;
72023;PMS5003;59889;50.700;5.440;2023-06-22T12:40:12;38;35;
72023;PMS5003;59889;50.700;5.440;2023-06-22T12:42:37;37;34;
72023;PMS5003;59889;50.700;5.440;2023-06-22T12:45:03;35;33;
72023;PMS5003;59889;50.700;5.440;2023-06-22T12:47:28;34;33;
72023;PMS5003;59889;50.700;5.440;2023-06-22T12:49:53;34;34;
72023;PMS5003;59889;50.700;5.440;2023-06-22T12:52:19;37;35;
72023;PMS5003;59889;50.700;5.440;2023-06-22T12:54:45;39;36;
72023;PMS5003;59889;50.700;5.440;2023-06-22T12:57:10;35;34;
72023;PMS5003;59889;50.700;5.440;2023-06-22T12:59:36;31;30;
72023;PMS5003;59889;50.700;5.440;2023-06-22T13:02:01;36;34;
72023;PMS5003;59889;50.700;5.440;2023-06-22T13:04:26;33;33;
72023;PMS5003;59889;50.700;5.440;2023-06-22T13:06:51;35;34;
72023;PMS5003;59889;50.700;5.440;2023-06-22T13:09:18;36;35;
72023;PMS5003;59889;50.700;5.440;2023-06-22T13:11:42;34;33;
72023;PMS5003;59889;50.700;5.440;2023-06-22T13:14:07;33;32;
72023;PMS5003;59889;50.700;5.440;2023-06-22T13:16:33;33;32;
72023;PMS5003;59889;50.700;5.440;2023-06-22T13:18:59;30;28;
72023;PMS5003;59889;50.700;5.440;2023-06-22T13:21:24;36;34;
72023;PMS5003;59889;50.700;5.440;2023-06-22T13:23:50;33;31;
72023;PMS5003;59889;50.700;5.440;2023-06-22T13:26:15;34;33;
72023;PMS5003;59889;50.700;5.440;2023-06-22T13:28:40;39;37;
72023;PMS5003;59889;50.700;5.440;2023-06-22T13:31:06;32;30;
72023;PMS5003;59889;50.700;5.440;2023-06-22T13:33:31;32;31;
72023;PMS5003;59889;50.700;5.440;2023-06-22T13:35:56;31;30;
72023;PMS5003;59889;50.700;5.440;2023-06-22T13:38:22;37;33;
72023;PMS5003;59889;50.700;5.440;2023-06-22T13:40:47;28;28;
72023;PMS5003;59889;50.700;5.440;2023-06-22T13:43:13;31;29;
72023;PMS5003;59889;50.700;5.440;2023-06-22T13:45:39;29;29;
72023;PMS5003;59889;50.700;5.440;2023-06-22T13:48:04;27;26;
72023;PMS5003;59889;50.700;5.440;2023-06-22T13:50:30;27;26;
72023;PMS5003;59889;50.700;5.440;2023-06-22T13:52:55;32;29;
72023;PMS5003;59889;50.700;5.440;2023-06-22T13:55:20;29;29;
72023;PMS5003;59889;50.700;5.440;2023-06-22T13:57:45;27;26;
72023;PMS5003;59889;50.700;5.440;2023-06-22T14:00:11;32;31;
72023;PMS5003;59889;50.700;5.440;2023-06-22T14:02:36;29;27;
72023;PMS5003;59889;50.700;5.440;2023-06-22T14:05:02;35;34;
72023;PMS5003;59889;50.700;5.440;2023-06-22T14:07:27;23;22;
72023;PMS5003;59889;50.700;5.440;2023-06-22T14:09:53;27;25;
72023;PMS5003;59889;50.700;5.440;2023-06-22T14:12:18;28;26;
72023;PMS5003;59889;50.700;5.440;2023-06-22T14:14:43;27;26;
72023;PMS5003;59889;50.700;5.440;2023-06-22T14:17:09;27;26;
72023;PMS5003;59889;50.700;5.440;2023-06-22T14:19:34;24;22;
72023;PMS5003;59889;50.700;5.440;2023-06-22T14:21:59;23;22;
72023;PMS5003;59889;50.700;5.440;2023-06-22T14:24:24;22;22;
72023;PMS5003;59889;50.700;5.440;2023-06-22T14:26:49;26;24;
72023;PMS5003;59889;50.700;5.440;2023-06-22T14:29:15;23;22;
72023;PMS5003;59889;50.700;5.440;2023-06-22T14:31:44;23;23;
72023;PMS5003;59889;50.700;5.440;2023-06-22T14:34:06;20;20;
72023;PMS5003;59889;50.700;5.440;2023-06-22T14:36:31;21;21;
72023;PMS5003;59889;50.700;5.440;2023-06-22T14:38:57;19;19;
72023;PMS5003;59889;50.700;5.440;2023-06-22T14:41:23;21;19;
72023;PMS5003;59889;50.700;5.440;2023-06-22T14:43:49;20;19;
72023;PMS5003;59889;50.700;5.440;2023-06-22T14:46:14;18;17;
72023;PMS5003;59889;50.700;5.440;2023-06-22T14:48:39;20;19;
72023;PMS5003;59889;50.700;5.440;2023-06-22T14:51:04;16;16;
72023;PMS5003;59889;50.700;5.440;2023-06-22T14:53:29;19;17;
72023;PMS5003;59889;50.700;5.440;2023-06-22T14:55:54;16;15;
72023;PMS5003;59889;50.700;5.440;2023-06-22T14:58:19;19;15;
72023;PMS5003;59889;50.700;5.440;2023-06-22T15:00:44;17;16;
72023;PMS5003;59889;50.700;5.440;2023-06-22T15:03:09;15;14;
72023;PMS5003;59889;50.700;5.440;2023-06-22T15:05:34;17;16;
72023;PMS5003;59889;50.700;5.440;2023-06-22T15:07:59;16;15;
72023;PMS5003;59889;50.700;5.440;2023-06-22T15:10:24;16;16;
72023;PMS5003;59889;50.700;5.440;2023-06-22T15:12:49;16;16;
72023;PMS5003;59889;50.700;5.440;2023-06-22T15:15:14;18;18;
72023;PMS5003;59889;50.700;5.440;2023-06-22T15:17:39;15;15;
72023;PMS5003;59889;50.700;5.440;2023-06-22T15:20:05;17;15;
72023;PMS5003;59889;50.700;5.440;2023-06-22T15:22:31;19;19;
72023;PMS5003;59889;50.700;5.440;2023-06-22T15:24:56;16;16;
72023;PMS5003;59889;50.700;5.440;2023-06-22T15:27:22;16;15;
72023;PMS5003;59889;50.700;5.440;2023-06-22T15:29:47;15;15;
72023;PMS5003;59889;50.700;5.440;2023-06-22T15:32:13;15;15;
72023;PMS5003;59889;50.700;5.440;2023-06-22T15:34:38;13;13;
72023;PMS5003;59889;50.700;5.440;2023-06-22T15:37:04;15;14;
72023;PMS5003;59889;50.700;5.440;2023-06-22T15:39:29;16;12;
72023;PMS5003;59889;50.700;5.440;2023-06-22T15:41:54;13;12;
72023;PMS5003;59889;50.700;5.440;2023-06-22T15:44:19;14;14;
72023;PMS5003;59889;50.700;5.440;2023-06-22T15:46:45;13;13;
72023;PMS5003;59889;50.700;5.440;2023-06-22T15:49:11;11;11;
72023;PMS5003;59889;50.700;5.440;2023-06-22T15:51:37;13;13;
72023;PMS5003;59889;50.700;5.440;2023-06-22T15:54:03;12;11;
72023;PMS5003;59889;50.700;5.440;2023-06-22T15:56:29;11;10;
72023;PMS5003;59889;50.700;5.440;2023-06-22T15:58:54;13;12;
72023;PMS5003;59889;50.700;5.440;2023-06-22T16:01:20;12;11;
72023;PMS5003;59889;50.700;5.440;2023-06-22T16:03:46;11;11;
72023;PMS5003;59889;50.700;5.440;2023-06-22T16:06:11;11;11;
72023;PMS5003;59889;50.700;5.440;2023-06-22T16:08:37;12;12;
72023;PMS5003;59889;50.700;5.440;2023-06-22T16:11:03;12;12;
72023;PMS5003;59889;50.700;5.440;2023-06-22T16:13:29;11;11;
72023;PMS5003;59889;50.700;5.440;2023-06-22T16:15:55;14;13;
72023;PMS5003;59889;50.700;5.440;2023-06-22T16:18:21;14;11;
72023;PMS5003;59889;50.700;5.440;2023-06-22T16:20:46;11;11;
72023;PMS5003;59889;50.700;5.440;2023-06-22T16:23:12;10;10;
72023;PMS5003;59889;50.700;5.440;2023-06-22T16:25:38;11;11;
72023;PMS5003;59889;50.700;5.440;2023-06-22T16:28:04;11;11;
72023;PMS5003;59889;50.700;5.440;2023-06-22T16:30:30;11;11;
72023;PMS5003;59889;50.700;5.440;2023-06-22T16:32:56;10;9;
72023;PMS5003;59889;50.700;5.440;2023-06-22T16:35:22;12;12;
72023;PMS5003;59889;50.700;5.440;2023-06-22T16:37:48;10;10;
72023;PMS5003;59889;50.700;5.440;2023-06-22T16:40:13;11;10;
72023;PMS5003;59889;50.700;5.440;2023-06-22T16:42:39;12;12;
72023;PMS5003;59889;50.700;5.440;2023-06-22T16:45:05;12;12;